sensor_id;sensor_type;location;lat;lon;timestamp;temperature;humidity
24224;DHT22;12359;49.716;9.212;2023-08-24T00:00:20;17.80;1.00
24224;DHT22;12359;49.716;9.212;2023-08-24T00:02:46;17.80;1.00
24224;DHT22;12359;49.716;9.212;2023-08-24T00:05:12;17.90;1.00
24224;DHT22;12359;49.716;9.212;2023-08-24T00:07:38;17.80;1.00
24224;DHT22;12359;49.716;9.212;2023-08-24T00:10:06;17.70;1.00
24224;DHT22;12359;49.716;9.212;2023-08-24T00:12:33;17.80;1.00
24224;DHT22;12359;49.716;9.212;2023-08-24T00:15:00;17.70;1.00
24224;DHT22;12359;49.716;9.212;2023-08-24T00:17:26;17.60;1.00
24224;DHT22;12359;49.716;9.212;2023-08-24T00:19:52;17.60;1.00
24224;DHT22;12359;49.716;9.212;2023-08-24T00:22:17;17.60;1.00
24224;DHT22;12359;49.716;9.212;2023-08-24T00:24:43;17.60;1.00
24224;DHT22;12359;49.716;9.212;2023-08-24T00:27:09;17.50;1.00
24224;DHT22;12359;49.716;9.212;2023-08-24T00:29:35;17.50;1.00
24224;DHT22;12359;49.716;9.212;2023-08-24T00:32:01;17.50;1.00
24224;DHT22;12359;49.716;9.212;2023-08-24T00:34:27;17.40;1.00
24224;DHT22;12359;49.716;9.212;2023-08-24T00:36:52;17.50;1.00
24224;DHT22;12359;49.716;9.212;2023-08-24T00:39:18;17.40;1.00
24224;DHT22;12359;49.716;9.212;2023-08-24T00:41:43;17.40;1.00
24224;DHT22;12359;49.716;9.212;2023-08-24T00:44:10;17.40;1.00
24224;DHT22;12359;49.716;9.212;2023-08-24T00:46:37;17.50;1.00
24224;DHT22;12359;49.716;9.212;2023-08-24T00:49:03;17.50;1.00
24224;DHT22;12359;49.716;9.212;2023-08-24T00:51:29;17.50;1.00
24224;DHT22;12359;49.716;9.212;2023-08-24T00:53:55;17.40;1.00
24224;DHT22;12359;49.716;9.212;2023-08-24T00:56:22;17.40;1.00
24224;DHT22;12359;49.716;9.212;2023-08-24T00:58:50;17.40;1.00
24224;DHT22;12359;49.716;9.212;2023-08-24T01:01:19;17.40;1.00
24224;DHT22;12359;49.716;9.212;2023-08-24T01:03:45;17.30;1.00
24224;DHT22;12359;49.716;9.212;2023-08-24T01:06:11;17.30;1.00
24224;DHT22;12359;49.716;9.212;2023-08-24T01:08:37;17.20;1.00
24224;DHT22;12359;49.716;9.212;2023-08-24T01:16:28;17.40;1.00
24224;DHT22;12359;49.716;9.212;2023-08-24T01:18:58;17.40;1.00
24224;DHT22;12359;49.716;9.212;2023-08-24T01:21:28;17.40;1.00
24224;DHT22;12359;49.716;9.212;2023-08-24T01:24:18;17.40;1.00
24224;DHT22;12359;49.716;9.212;2023-08-24T01:26:44;17.30;1.00
24224;DHT22;12359;49.716;9.212;2023-08-24T01:29:09;17.30;1.00
24224;DHT22;12359;49.716;9.212;2023-08-24T01:31:35;17.20;1.00
24224;DHT22;12359;49.716;9.212;2023-08-24T01:34:01;17.20;1.00
24224;DHT22;12359;49.716;9.212;2023-08-24T01:36:27;17.10;1.00
24224;DHT22;12359;49.716;9.212;2023-08-24T01:39:07;17.10;1.00
24224;DHT22;12359;49.716;9.212;2023-08-24T01:41:36;17.10;1.00
24224;DHT22;12359;49.716;9.212;2023-08-24T01:44:09;17.10;1.00
24224;DHT22;12359;49.716;9.212;2023-08-24T01:46:38;17.00;1.00
24224;DHT22;12359;49.716;9.212;2023-08-24T01:49:05;16.90;1.00
24224;DHT22;12359;49.716;9.212;2023-08-24T01:51:34;16.90;1.00
24224;DHT22;12359;49.716;9.212;2023-08-24T01:54:00;16.90;1.00
24224;DHT22;12359;49.716;9.212;2023-08-24T01:56:26;16.90;1.00
24224;DHT22;12359;49.716;9.212;2023-08-24T01:58:52;16.80;1.00
24224;DHT22;12359;49.716;9.212;2023-08-24T02:01:17;16.90;1.00
24224;DHT22;12359;49.716;9.212;2023-08-24T02:03:43;16.80;1.00
24224;DHT22;12359;49.716;9.212;2023-08-24T02:06:09;16.70;1.00
24224;DHT22;12359;49.716;9.212;2023-08-24T02:08:35;16.70;1.00
24224;DHT22;12359;49.716;9.212;2023-08-24T02:11:00;16.70;1.00
24224;DHT22;12359;49.716;9.212;2023-08-24T02:13:26;16.70;1.00
24224;DHT22;12359;49.716;9.212;2023-08-24T02:16:01;16.70;1.00
24224;DHT22;12359;49.716;9.212;2023-08-24T02:18:27;16.70;1.00
24224;DHT22;12359;49.716;9.212;2023-08-24T02:20:52;16.70;1.00
24224;DHT22;12359;49.716;9.212;2023-08-24T02:23:18;16.70;1.00
24224;DHT22;12359;49.716;9.212;2023-08-24T02:25:44;16.70;1.00
24224;DHT22;12359;49.716;9.212;2023-08-24T02:28:09;16.70;1.00
24224;DHT22;12359;49.716;9.212;2023-08-24T02:30:37;16.60;1.00
24224;DHT22;12359;49.716;9.212;2023-08-24T02:33:04;16.60;1.00
24224;DHT22;12359;49.716;9.212;2023-08-24T02:35:30;16.50;1.00
24224;DHT22;12359;49.716;9.212;2023-08-24T02:37:55;16.50;1.00
24224;DHT22;12359;49.716;9.212;2023-08-24T02:40:22;16.50;1.00
24224;DHT22;12359;49.716;9.212;2023-08-24T02:42:48;16.60;1.00
24224;DHT22;12359;49.716;9.212;2023-08-24T02:45:14;16.60;1.00
24224;DHT22;12359;49.716;9.212;2023-08-24T02:47:39;16.50;1.00
24224;DHT22;12359;49.716;9.212;2023-08-24T02:50:05;16.50;1.00
24224;DHT22;12359;49.716;9.212;2023-08-24T02:52:34;16.40;1.00
24224;DHT22;12359;49.716;9.212;2023-08-24T02:55:00;16.30;1.80
24224;DHT22;12359;49.716;9.212;2023-08-24T02:57:25;16.40;1.90
24224;DHT22;12359;49.716;9.212;2023-08-24T02:59:51;16.40;1.00
24224;DHT22;12359;49.716;9.212;2023-08-24T03:02:17;16.40;1.00
24224;DHT22;12359;49.716;9.212;2023-08-24T03:04:42;16.40;1.00
24224;DHT22;12359;49.716;9.212;2023-08-24T03:07:08;16.30;1.00
24224;DHT22;12359;49.716;9.212;2023-08-24T03:09:36;16.30;6.70
24224;DHT22;12359;49.716;9.212;2023-08-24T03:12:01;16.30;1.00
24224;DHT22;12359;49.716;9.212;2023-08-24T03:14:28;16.30;2.60
24224;DHT22;12359;49.716;9.212;2023-08-24T03:16:53;16.30;1.00
24224;DHT22;12359;49.716;9.212;2023-08-24T03:19:19;16.20;5.70
24224;DHT22;12359;49.716;9.212;2023-08-24T03:21:45;16.20;1.00
24224;DHT22;12359;49.716;9.212;2023-08-24T03:24:11;16.20;6.40
24224;DHT22;12359;49.716;9.212;2023-08-24T03:26:36;16.20;12.00
24224;DHT22;12359;49.716;9.212;2023-08-24T03:29:02;16.10;13.10
24224;DHT22;12359;49.716;9.212;2023-08-24T03:31:28;16.00;20.30
24224;DHT22;12359;49.716;9.212;2023-08-24T03:33:54;16.00;18.50
24224;DHT22;12359;49.716;9.212;2023-08-24T03:36:20;16.10;19.80
24224;DHT22;12359;49.716;9.212;2023-08-24T03:38:46;16.10;16.90
24224;DHT22;12359;49.716;9.212;2023-08-24T03:41:12;16.00;18.10
24224;DHT22;12359;49.716;9.212;2023-08-24T03:43:37;16.00;17.20
24224;DHT22;12359;49.716;9.212;2023-08-24T03:46:04;16.10;16.90
24224;DHT22;12359;49.716;9.212;2023-08-24T03:48:31;16.10;14.60
24224;DHT22;12359;49.716;9.212;2023-08-24T03:50:57;16.10;16.10
24224;DHT22;12359;49.716;9.212;2023-08-24T03:53:24;16.20;12.80
24224;DHT22;12359;49.716;9.212;2023-08-24T03:55:51;16.10;14.90
24224;DHT22;12359;49.716;9.212;2023-08-24T03:58:17;16.20;11.50
24224;DHT22;12359;49.716;9.212;2023-08-24T04:00:46;16.30;8.70
24224;DHT22;12359;49.716;9.212;2023-08-24T04:03:12;16.30;11.20
24224;DHT22;12359;49.716;9.212;2023-08-24T04:05:38;16.40;7.50
24224;DHT22;12359;49.716;9.212;2023-08-24T04:08:04;16.40;2.60
24224;DHT22;12359;49.716;9.212;2023-08-24T04:10:30;16.40;4.70
24224;DHT22;12359;49.716;9.212;2023-08-24T04:12:56;16.40;4.30
24224;DHT22;12359;49.716;9.212;2023-08-24T04:15:22;16.40;11.40
24224;DHT22;12359;49.716;9.212;2023-08-24T04:17:48;16.40;18.30
24224;DHT22;12359;49.716;9.212;2023-08-24T04:20:15;16.40;20.00
24224;DHT22;12359;49.716;9.212;2023-08-24T04:22:41;16.40;20.80
24224;DHT22;12359;49.716;9.212;2023-08-24T04:25:07;16.50;23.00
24224;DHT22;12359;49.716;9.212;2023-08-24T04:27:33;16.60;28.70
24224;DHT22;12359;49.716;9.212;2023-08-24T04:29:59;16.70;32.90
24224;DHT22;12359;49.716;9.212;2023-08-24T04:32:26;16.80;32.00
24224;DHT22;12359;49.716;9.212;2023-08-24T04:34:53;16.90;23.80
24224;DHT22;12359;49.716;9.212;2023-08-24T04:37:18;16.90;14.10
24224;DHT22;12359;49.716;9.212;2023-08-24T04:39:44;16.70;10.80
24224;DHT22;12359;49.716;9.212;2023-08-24T04:42:10;16.60;10.60
24224;DHT22;12359;49.716;9.212;2023-08-24T04:44:35;16.50;16.50
24224;DHT22;12359;49.716;9.212;2023-08-24T04:47:01;16.40;23.60
24224;DHT22;12359;49.716;9.212;2023-08-24T04:49:27;16.50;26.10
24224;DHT22;12359;49.716;9.212;2023-08-24T04:51:54;16.50;26.90
24224;DHT22;12359;49.716;9.212;2023-08-24T04:54:19;16.70;30.20
24224;DHT22;12359;49.716;9.212;2023-08-24T04:56:45;16.80;29.20
24224;DHT22;12359;49.716;9.212;2023-08-24T04:59:11;16.90;25.80
24224;DHT22;12359;49.716;9.212;2023-08-24T05:01:36;16.90;22.20
24224;DHT22;12359;49.716;9.212;2023-08-24T05:04:02;17.00;19.00
24224;DHT22;12359;49.716;9.212;2023-08-24T05:06:28;17.10;17.10
24224;DHT22;12359;49.716;9.212;2023-08-24T05:08:55;17.10;5.40
24224;DHT22;12359;49.716;9.212;2023-08-24T05:11:22;17.10;5.60
24224;DHT22;12359;49.716;9.212;2023-08-24T05:13:49;17.10;4.70
24224;DHT22;12359;49.716;9.212;2023-08-24T05:16:16;17.20;2.90
24224;DHT22;12359;49.716;9.212;2023-08-24T05:18:41;17.20;3.50
24224;DHT22;12359;49.716;9.212;2023-08-24T05:21:07;17.30;1.00
24224;DHT22;12359;49.716;9.212;2023-08-24T05:23:33;17.30;1.00
24224;DHT22;12359;49.716;9.212;2023-08-24T05:26:00;17.20;1.00
24224;DHT22;12359;49.716;9.212;2023-08-24T05:28:27;17.10;1.00
24224;DHT22;12359;49.716;9.212;2023-08-24T05:30:53;17.10;1.00
24224;DHT22;12359;49.716;9.212;2023-08-24T05:33:20;17.10;1.00
24224;DHT22;12359;49.716;9.212;2023-08-24T05:35:46;17.10;1.00
24224;DHT22;12359;49.716;9.212;2023-08-24T05:38:13;17.10;3.50
24224;DHT22;12359;49.716;9.212;2023-08-24T05:40:39;17.10;1.00
24224;DHT22;12359;49.716;9.212;2023-08-24T05:43:05;17.10;3.50
24224;DHT22;12359;49.716;9.212;2023-08-24T05:45:31;17.20;13.00
24224;DHT22;12359;49.716;9.212;2023-08-24T05:47:57;17.40;13.20
24224;DHT22;12359;49.716;9.212;2023-08-24T05:50:22;17.60;7.30
24224;DHT22;12359;49.716;9.212;2023-08-24T05:52:48;17.70;3.80
24224;DHT22;12359;49.716;9.212;2023-08-24T05:55:13;17.90;1.00
24224;DHT22;12359;49.716;9.212;2023-08-24T05:57:39;18.00;1.00
24224;DHT22;12359;49.716;9.212;2023-08-24T06:00:05;18.20;1.00
24224;DHT22;12359;49.716;9.212;2023-08-24T06:02:38;18.30;1.00
24224;DHT22;12359;49.716;9.212;2023-08-24T06:05:05;18.40;1.00
24224;DHT22;12359;49.716;9.212;2023-08-24T06:07:32;18.50;1.00
24224;DHT22;12359;49.716;9.212;2023-08-24T06:09:58;18.60;1.00
24224;DHT22;12359;49.716;9.212;2023-08-24T06:12:24;18.70;1.00
24224;DHT22;12359;49.716;9.212;2023-08-24T06:14:49;18.80;1.00
24224;DHT22;12359;49.716;9.212;2023-08-24T06:17:15;18.90;1.00
24224;DHT22;12359;49.716;9.212;2023-08-24T06:19:41;19.00;1.00
24224;DHT22;12359;49.716;9.212;2023-08-24T06:22:07;19.00;1.00
24224;DHT22;12359;49.716;9.212;2023-08-24T06:24:32;19.10;1.00
24224;DHT22;12359;49.716;9.212;2023-08-24T06:26:58;19.10;1.00
24224;DHT22;12359;49.716;9.212;2023-08-24T06:29:24;19.10;1.00
24224;DHT22;12359;49.716;9.212;2023-08-24T06:31:49;19.10;1.00
24224;DHT22;12359;49.716;9.212;2023-08-24T06:34:15;19.20;1.00
24224;DHT22;12359;49.716;9.212;2023-08-24T06:36:41;19.10;1.00
24224;DHT22;12359;49.716;9.212;2023-08-24T06:39:06;19.00;1.00
24224;DHT22;12359;49.716;9.212;2023-08-24T06:41:34;19.00;1.00
24224;DHT22;12359;49.716;9.212;2023-08-24T06:44:01;19.10;99.90
24224;DHT22;12359;49.716;9.212;2023-08-24T06:46:27;19.30;1.00
24224;DHT22;12359;49.716;9.212;2023-08-24T06:48:52;19.50;1.00
24224;DHT22;12359;49.716;9.212;2023-08-24T06:51:18;19.60;99.90
24224;DHT22;12359;49.716;9.212;2023-08-24T06:53:44;19.80;99.90
24224;DHT22;12359;49.716;9.212;2023-08-24T06:56:12;20.00;99.90
24224;DHT22;12359;49.716;9.212;2023-08-24T06:58:39;20.10;99.90
24224;DHT22;12359;49.716;9.212;2023-08-24T07:01:05;20.30;99.90
24224;DHT22;12359;49.716;9.212;2023-08-24T07:03:32;20.50;99.90
24224;DHT22;12359;49.716;9.212;2023-08-24T07:05:58;20.80;59.70
24224;DHT22;12359;49.716;9.212;2023-08-24T07:08:24;21.10;99.90
24224;DHT22;12359;49.716;9.212;2023-08-24T07:10:50;21.20;99.90
24224;DHT22;12359;49.716;9.212;2023-08-24T07:13:16;21.40;1.00
24224;DHT22;12359;49.716;9.212;2023-08-24T07:15:42;21.40;99.90
24224;DHT22;12359;49.716;9.212;2023-08-24T07:18:08;21.40;1.00
24224;DHT22;12359;49.716;9.212;2023-08-24T07:20:35;21.40;1.00
24224;DHT22;12359;49.716;9.212;2023-08-24T07:23:01;21.30;1.00
24224;DHT22;12359;49.716;9.212;2023-08-24T07:25:27;21.30;92.10
24224;DHT22;12359;49.716;9.212;2023-08-24T07:27:56;21.10;18.80
24224;DHT22;12359;49.716;9.212;2023-08-24T07:30:25;21.00;99.90
24224;DHT22;12359;49.716;9.212;2023-08-24T07:32:55;20.90;99.90
24224;DHT22;12359;49.716;9.212;2023-08-24T07:35:21;20.80;99.90
24224;DHT22;12359;49.716;9.212;2023-08-24T07:37:50;20.70;43.00
24224;DHT22;12359;49.716;9.212;2023-08-24T07:40:16;20.80;5.30
24224;DHT22;12359;49.716;9.212;2023-08-24T07:42:49;20.80;1.00
24224;DHT22;12359;49.716;9.212;2023-08-24T07:45:22;21.00;99.90
24224;DHT22;12359;49.716;9.212;2023-08-24T07:47:51;21.90;51.60
24224;DHT22;12359;49.716;9.212;2023-08-24T07:50:16;23.00;99.90
24224;DHT22;12359;49.716;9.212;2023-08-24T07:52:42;23.80;99.90
24224;DHT22;12359;49.716;9.212;2023-08-24T07:55:08;24.50;83.50
24224;DHT22;12359;49.716;9.212;2023-08-24T07:57:34;24.60;99.90
24224;DHT22;12359;49.716;9.212;2023-08-24T08:00:00;25.70;99.90
24224;DHT22;12359;49.716;9.212;2023-08-24T08:02:26;26.90;1.00
24224;DHT22;12359;49.716;9.212;2023-08-24T08:04:56;27.70;99.90
24224;DHT22;12359;49.716;9.212;2023-08-24T08:07:23;28.50;57.50
24224;DHT22;12359;49.716;9.212;2023-08-24T08:09:50;29.40;8.80
24224;DHT22;12359;49.716;9.212;2023-08-24T08:12:15;30.40;1.00
24224;DHT22;12359;49.716;9.212;2023-08-24T08:14:41;30.90;1.00
24224;DHT22;12359;49.716;9.212;2023-08-24T08:17:07;30.70;1.00
24224;DHT22;12359;49.716;9.212;2023-08-24T08:19:32;29.90;1.00
24224;DHT22;12359;49.716;9.212;2023-08-24T08:22:01;29.20;1.00
24224;DHT22;12359;49.716;9.212;2023-08-24T08:24:27;29.40;1.00
24224;DHT22;12359;49.716;9.212;2023-08-24T08:26:53;28.50;1.00
24224;DHT22;12359;49.716;9.212;2023-08-24T08:29:18;28.10;1.00
24224;DHT22;12359;49.716;9.212;2023-08-24T08:31:44;27.60;1.00
24224;DHT22;12359;49.716;9.212;2023-08-24T08:34:10;27.00;1.00
24224;DHT22;12359;49.716;9.212;2023-08-24T08:36:35;27.20;1.00
24224;DHT22;12359;49.716;9.212;2023-08-24T08:39:01;27.40;1.00
24224;DHT22;12359;49.716;9.212;2023-08-24T08:41:33;27.40;1.00
24224;DHT22;12359;49.716;9.212;2023-08-24T08:44:05;26.80;1.00
24224;DHT22;12359;49.716;9.212;2023-08-24T08:46:35;26.30;1.00
24224;DHT22;12359;49.716;9.212;2023-08-24T08:49:01;25.90;1.00
24224;DHT22;12359;49.716;9.212;2023-08-24T08:51:28;25.70;1.00
24224;DHT22;12359;49.716;9.212;2023-08-24T08:53:54;25.50;1.00
24224;DHT22;12359;49.716;9.212;2023-08-24T08:56:21;25.40;1.00
24224;DHT22;12359;49.716;9.212;2023-08-24T08:58:48;26.10;1.00
24224;DHT22;12359;49.716;9.212;2023-08-24T09:01:15;26.40;1.00
24224;DHT22;12359;49.716;9.212;2023-08-24T09:03:41;27.20;1.00
24224;DHT22;12359;49.716;9.212;2023-08-24T09:06:09;27.40;1.00
24224;DHT22;12359;49.716;9.212;2023-08-24T09:08:34;27.10;1.00
24224;DHT22;12359;49.716;9.212;2023-08-24T09:11:00;26.90;1.00
24224;DHT22;12359;49.716;9.212;2023-08-24T09:13:26;26.40;1.00
24224;DHT22;12359;49.716;9.212;2023-08-24T09:15:52;25.90;1.00
24224;DHT22;12359;49.716;9.212;2023-08-24T09:18:20;25.80;1.00
24224;DHT22;12359;49.716;9.212;2023-08-24T09:20:47;25.60;1.00
24224;DHT22;12359;49.716;9.212;2023-08-24T09:23:19;25.60;1.00
24224;DHT22;12359;49.716;9.212;2023-08-24T09:25:48;25.60;5.10
24224;DHT22;12359;49.716;9.212;2023-08-24T09:28:22;25.50;9.60
24224;DHT22;12359;49.716;9.212;2023-08-24T09:30:55;25.30;9.30
24224;DHT22;12359;49.716;9.212;2023-08-24T09:33:21;25.40;22.30
24224;DHT22;12359;49.716;9.212;2023-08-24T09:35:54;25.60;24.20
24224;DHT22;12359;49.716;9.212;2023-08-24T09:38:27;25.90;21.20
24224;DHT22;12359;49.716;9.212;2023-08-24T09:40:54;26.90;31.40
24224;DHT22;12359;49.716;9.212;2023-08-24T09:43:22;27.60;6.70
24224;DHT22;12359;49.716;9.212;2023-08-24T09:45:55;28.20;1.00
24224;DHT22;12359;49.716;9.212;2023-08-24T09:48:22;28.80;1.00
24224;DHT22;12359;49.716;9.212;2023-08-24T09:50:50;29.30;1.00
24224;DHT22;12359;49.716;9.212;2023-08-24T09:53:20;30.00;1.00
24224;DHT22;12359;49.716;9.212;2023-08-24T09:55:59;30.90;1.00
24224;DHT22;12359;49.716;9.212;2023-08-24T09:58:25;31.80;1.00
24224;DHT22;12359;49.716;9.212;2023-08-24T10:00:52;32.40;1.00
24224;DHT22;12359;49.716;9.212;2023-08-24T10:03:19;32.20;1.00
24224;DHT22;12359;49.716;9.212;2023-08-24T10:05:53;32.00;1.00
24224;DHT22;12359;49.716;9.212;2023-08-24T10:08:22;31.80;1.00
24224;DHT22;12359;49.716;9.212;2023-08-24T10:10:53;32.10;1.00
24224;DHT22;12359;49.716;9.212;2023-08-24T10:13:44;31.80;99.90
24224;DHT22;12359;49.716;9.212;2023-08-24T10:16:14;31.40;99.90
24224;DHT22;12359;49.716;9.212;2023-08-24T10:18:41;31.20;99.90
24224;DHT22;12359;49.716;9.212;2023-08-24T10:21:08;31.50;99.90
24224;DHT22;12359;49.716;9.212;2023-08-24T10:23:35;31.60;99.90
24224;DHT22;12359;49.716;9.212;2023-08-24T10:26:06;31.60;99.90
24224;DHT22;12359;49.716;9.212;2023-08-24T10:28:32;31.90;99.90
24224;DHT22;12359;49.716;9.212;2023-08-24T10:30:59;32.30;99.90
24224;DHT22;12359;49.716;9.212;2023-08-24T10:33:26;32.60;99.90
24224;DHT22;12359;49.716;9.212;2023-08-24T10:35:52;32.30;99.90
24224;DHT22;12359;49.716;9.212;2023-08-24T10:38:29;32.00;99.90
24224;DHT22;12359;49.716;9.212;2023-08-24T10:41:02;31.80;99.90
24224;DHT22;12359;49.716;9.212;2023-08-24T10:43:29;32.00;99.90
24224;DHT22;12359;49.716;9.212;2023-08-24T10:48:29;32.10;99.90
24224;DHT22;12359;49.716;9.212;2023-08-24T10:53:40;32.00;99.90
24224;DHT22;12359;49.716;9.212;2023-08-24T10:56:13;32.20;99.90
24224;DHT22;12359;49.716;9.212;2023-08-24T10:58:39;31.90;99.90
24224;DHT22;12359;49.716;9.212;2023-08-24T11:01:04;31.90;99.90
24224;DHT22;12359;49.716;9.212;2023-08-24T11:03:34;31.80;99.90
24224;DHT22;12359;49.716;9.212;2023-08-24T11:05:59;31.80;99.90
24224;DHT22;12359;49.716;9.212;2023-08-24T11:08:47;32.00;99.90
24224;DHT22;12359;49.716;9.212;2023-08-24T11:11:23;32.40;99.90
24224;DHT22;12359;49.716;9.212;2023-08-24T11:14:14;32.40;99.90
24224;DHT22;12359;49.716;9.212;2023-08-24T11:16:45;32.60;99.90
24224;DHT22;12359;49.716;9.212;2023-08-24T11:19:12;32.70;99.90
24224;DHT22;12359;49.716;9.212;2023-08-24T11:21:39;32.90;99.90
24224;DHT22;12359;49.716;9.212;2023-08-24T11:24:05;32.80;99.90
24224;DHT22;12359;49.716;9.212;2023-08-24T11:26:31;32.40;99.90
24224;DHT22;12359;49.716;9.212;2023-08-24T11:28:58;32.30;99.90
24224;DHT22;12359;49.716;9.212;2023-08-24T11:31:24;32.50;99.90
24224;DHT22;12359;49.716;9.212;2023-08-24T11:33:54;32.80;99.90
24224;DHT22;12359;49.716;9.212;2023-08-24T11:36:23;32.90;99.90
24224;DHT22;12359;49.716;9.212;2023-08-24T11:38:52;33.10;99.90
24224;DHT22;12359;49.716;9.212;2023-08-24T11:41:19;32.90;99.90
24224;DHT22;12359;49.716;9.212;2023-08-24T11:43:47;33.00;99.90
24224;DHT22;12359;49.716;9.212;2023-08-24T11:46:19;33.00;99.90
24224;DHT22;12359;49.716;9.212;2023-08-24T11:48:45;33.10;99.90
24224;DHT22;12359;49.716;9.212;2023-08-24T11:51:12;33.00;99.90
24224;DHT22;12359;49.716;9.212;2023-08-24T11:53:45;33.30;99.90
24224;DHT22;12359;49.716;9.212;2023-08-24T11:56:13;33.30;99.90
24224;DHT22;12359;49.716;9.212;2023-08-24T11:58:40;33.10;99.90
24224;DHT22;12359;49.716;9.212;2023-08-24T12:01:06;33.50;99.90
24224;DHT22;12359;49.716;9.212;2023-08-24T12:03:32;33.70;99.90
24224;DHT22;12359;49.716;9.212;2023-08-24T12:06:01;33.70;99.90
24224;DHT22;12359;49.716;9.212;2023-08-24T12:08:29;33.20;99.90
24224;DHT22;12359;49.716;9.212;2023-08-24T12:10:54;33.20;99.90
24224;DHT22;12359;49.716;9.212;2023-08-24T12:13:20;33.00;99.90
24224;DHT22;12359;49.716;9.212;2023-08-24T12:15:47;32.70;99.90
24224;DHT22;12359;49.716;9.212;2023-08-24T12:18:16;32.60;99.90
24224;DHT22;12359;49.716;9.212;2023-08-24T12:20:41;32.80;99.90
24224;DHT22;12359;49.716;9.212;2023-08-24T12:23:09;32.90;99.90
24224;DHT22;12359;49.716;9.212;2023-08-24T12:25:39;33.00;99.90
24224;DHT22;12359;49.716;9.212;2023-08-24T12:30:48;33.00;99.90
24224;DHT22;12359;49.716;9.212;2023-08-24T12:33:30;32.80;99.90
24224;DHT22;12359;49.716;9.212;2023-08-24T12:35:57;32.40;99.90
24224;DHT22;12359;49.716;9.212;2023-08-24T12:38:25;32.20;99.90
24224;DHT22;12359;49.716;9.212;2023-08-24T12:40:52;32.30;99.90
24224;DHT22;12359;49.716;9.212;2023-08-24T12:43:18;32.30;99.90
24224;DHT22;12359;49.716;9.212;2023-08-24T12:45:44;32.40;99.90
24224;DHT22;12359;49.716;9.212;2023-08-24T12:48:10;32.40;99.90
24224;DHT22;12359;49.716;9.212;2023-08-24T12:50:37;32.50;99.90
24224;DHT22;12359;49.716;9.212;2023-08-24T12:53:03;32.40;99.90
24224;DHT22;12359;49.716;9.212;2023-08-24T12:55:32;32.30;99.90
24224;DHT22;12359;49.716;9.212;2023-08-24T12:57:58;32.40;99.90
24224;DHT22;12359;49.716;9.212;2023-08-24T13:00:23;32.60;99.90
24224;DHT22;12359;49.716;9.212;2023-08-24T13:02:50;32.80;99.90
24224;DHT22;12359;49.716;9.212;2023-08-24T13:05:16;32.70;99.90
24224;DHT22;12359;49.716;9.212;2023-08-24T13:07:42;32.70;99.90
24224;DHT22;12359;49.716;9.212;2023-08-24T13:10:08;32.60;99.90
24224;DHT22;12359;49.716;9.212;2023-08-24T13:12:34;32.70;99.90
24224;DHT22;12359;49.716;9.212;2023-08-24T13:15:00;32.80;99.90
24224;DHT22;12359;49.716;9.212;2023-08-24T13:17:27;32.90;99.90
24224;DHT22;12359;49.716;9.212;2023-08-24T13:19:53;32.80;99.90
24224;DHT22;12359;49.716;9.212;2023-08-24T13:22:19;32.80;99.90
24224;DHT22;12359;49.716;9.212;2023-08-24T13:24:44;32.90;99.90
24224;DHT22;12359;49.716;9.212;2023-08-24T13:27:10;33.00;99.90
24224;DHT22;12359;49.716;9.212;2023-08-24T13:29:40;33.20;99.90
24224;DHT22;12359;49.716;9.212;2023-08-24T13:32:06;33.30;99.90
24224;DHT22;12359;49.716;9.212;2023-08-24T13:34:32;33.50;99.90
24224;DHT22;12359;49.716;9.212;2023-08-24T13:36:58;33.30;99.90
24224;DHT22;12359;49.716;9.212;2023-08-24T13:39:27;33.40;99.90
24224;DHT22;12359;49.716;9.212;2023-08-24T13:41:59;33.50;99.90
24224;DHT22;12359;49.716;9.212;2023-08-24T13:44:25;33.50;99.90
24224;DHT22;12359;49.716;9.212;2023-08-24T13:46:51;33.50;99.90
24224;DHT22;12359;49.716;9.212;2023-08-24T13:49:20;33.40;99.90
24224;DHT22;12359;49.716;9.212;2023-08-24T13:51:47;33.40;99.90
24224;DHT22;12359;49.716;9.212;2023-08-24T13:54:17;33.50;99.90
24224;DHT22;12359;49.716;9.212;2023-08-24T13:56:44;33.20;99.90
24224;DHT22;12359;49.716;9.212;2023-08-24T13:59:11;33.00;99.90
24224;DHT22;12359;49.716;9.212;2023-08-24T14:01:37;32.80;99.90
24224;DHT22;12359;49.716;9.212;2023-08-24T14:04:03;32.70;99.90
24224;DHT22;12359;49.716;9.212;2023-08-24T14:06:30;32.90;99.90
24224;DHT22;12359;49.716;9.212;2023-08-24T14:08:56;32.80;99.90
24224;DHT22;12359;49.716;9.212;2023-08-24T14:11:22;32.90;99.90
24224;DHT22;12359;49.716;9.212;2023-08-24T14:13:48;33.10;99.90
24224;DHT22;12359;49.716;9.212;2023-08-24T14:16:14;32.90;99.90
24224;DHT22;12359;49.716;9.212;2023-08-24T14:18:40;32.80;99.90
24224;DHT22;12359;49.716;9.212;2023-08-24T14:21:05;33.00;99.90
24224;DHT22;12359;49.716;9.212;2023-08-24T14:23:31;33.00;99.90
24224;DHT22;12359;49.716;9.212;2023-08-24T14:25:58;32.90;99.90
24224;DHT22;12359;49.716;9.212;2023-08-24T14:28:23;33.10;99.90
24224;DHT22;12359;49.716;9.212;2023-08-24T14:30:50;33.20;99.90
24224;DHT22;12359;49.716;9.212;2023-08-24T14:33:16;33.30;99.90
24224;DHT22;12359;49.716;9.212;2023-08-24T14:35:53;33.20;99.90
24224;DHT22;12359;49.716;9.212;2023-08-24T14:38:19;33.20;99.90
24224;DHT22;12359;49.716;9.212;2023-08-24T14:40:45;33.10;99.90
24224;DHT22;12359;49.716;9.212;2023-08-24T14:43:10;33.10;99.90
24224;DHT22;12359;49.716;9.212;2023-08-24T14:45:37;33.00;99.90
24224;DHT22;12359;49.716;9.212;2023-08-24T14:48:03;33.00;99.90
24224;DHT22;12359;49.716;9.212;2023-08-24T14:50:28;32.90;99.90
24224;DHT22;12359;49.716;9.212;2023-08-24T14:52:54;32.70;99.90
24224;DHT22;12359;49.716;9.212;2023-08-24T14:55:20;32.70;99.90
24224;DHT22;12359;49.716;9.212;2023-08-24T14:57:45;32.60;99.90
24224;DHT22;12359;49.716;9.212;2023-08-24T15:00:12;32.40;99.90
24224;DHT22;12359;49.716;9.212;2023-08-24T15:02:37;32.20;99.90
24224;DHT22;12359;49.716;9.212;2023-08-24T15:05:04;31.90;99.90
24224;DHT22;12359;49.716;9.212;2023-08-24T15:07:30;31.60;99.90
24224;DHT22;12359;49.716;9.212;2023-08-24T15:09:56;31.30;99.90
24224;DHT22;12359;49.716;9.212;2023-08-24T15:12:22;31.00;99.90
24224;DHT22;12359;49.716;9.212;2023-08-24T15:15:01;30.90;99.90
24224;DHT22;12359;49.716;9.212;2023-08-24T15:17:30;30.70;99.90
24224;DHT22;12359;49.716;9.212;2023-08-24T15:19:56;30.60;99.90
24224;DHT22;12359;49.716;9.212;2023-08-24T15:22:23;30.50;99.90
24224;DHT22;12359;49.716;9.212;2023-08-24T15:24:49;30.40;99.90
24224;DHT22;12359;49.716;9.212;2023-08-24T15:27:15;30.40;99.90
24224;DHT22;12359;49.716;9.212;2023-08-24T15:29:40;30.30;99.90
24224;DHT22;12359;49.716;9.212;2023-08-24T15:32:06;30.20;99.90
24224;DHT22;12359;49.716;9.212;2023-08-24T15:34:32;30.10;1.00
24224;DHT22;12359;49.716;9.212;2023-08-24T15:36:57;29.90;1.00
24224;DHT22;12359;49.716;9.212;2023-08-24T15:39:23;29.50;99.90
24224;DHT22;12359;49.716;9.212;2023-08-24T15:41:50;28.90;99.90
24224;DHT22;12359;49.716;9.212;2023-08-24T15:44:15;28.20;99.90
24224;DHT22;12359;49.716;9.212;2023-08-24T15:46:41;27.80;61.40
24224;DHT22;12359;49.716;9.212;2023-08-24T15:49:07;27.30;1.00